sensor_id;sensor_type;location;lat;lon;timestamp;pressure;altitude;pressure_sealevel;temperature;humidity
54439;BME280;40347;53.848;27.498;2023-03-04T00:03:33;1000;;;3.3;66.2
54439;BME280;40347;53.848;27.498;2023-03-04T00:08:41;999.9;;;3.2;66.1
54439;BME280;40347;53.848;27.498;2023-03-04T00:13:21;999.8;;;3.3;66
54439;BME280;40347;53.848;27.498;2023-03-04T00:18:33;999.6;;;3.3;66.1
54439;BME280;40347;53.848;27.498;2023-03-04T00:23:29;999.5;;;3.3;66.1
54439;BME280;40347;53.848;27.498;2023-03-04T00:28:33;999.3;;;3.3;66.3
54439;BME280;40347;53.848;27.498;2023-03-04T00:33:21;999.2;;;3.3;66.4
54439;BME280;40347;53.848;27.498;2023-03-04T00:38:33;999.1;;;3.1;66.9
54439;BME280;40347;53.848;27.498;2023-03-04T00:43:21;999;;;2.9;67.4
54439;BME280;40347;53.848;27.498;2023-03-04T00:48:47;998.9;;;2.7;68.1
54439;BME280;40347;53.848;27.498;2023-03-04T00:53:21;998.8;;;2.5;69.1
54439;BME280;40347;53.848;27.498;2023-03-04T00:58:21;998.7;;;2.3;70
54439;BME280;40347;53.848;27.498;2023-03-04T01:03:21;998.6;;;2.3;69.9
54439;BME280;40347;53.848;27.498;2023-03-04T01:08:33;998.4;;;2.2;70
54439;BME280;40347;53.848;27.498;2023-03-04T01:13:27;998.4;;;2.1;70.4
54439;BME280;40347;53.848;27.498;2023-03-04T01:18:21;998.2;;;2.1;71
54439;BME280;40347;53.848;27.498;2023-03-04T01:23:29;998.1;;;2;71.5
54439;BME280;40347;53.848;27.498;2023-03-04T01:28:41;998.1;;;1.9;71.7
54439;BME280;40347;53.848;27.498;2023-03-04T01:33:33;998;;;1.9;72
54439;BME280;40347;53.848;27.498;2023-03-04T01:38:21;998;;;1.8;72.5
54439;BME280;40347;53.848;27.498;2023-03-04T01:43:33;997.9;;;1.7;72.4
54439;BME280;40347;53.848;27.498;2023-03-04T01:48:29;997.8;;;1.6;72.8
54439;BME280;40347;53.848;27.498;2023-03-04T01:53:33;997.6;;;1.6;73.6
54439;BME280;40347;53.848;27.498;2023-03-04T01:58:22;997.6;;;1.5;74.2
54439;BME280;40347;53.848;27.498;2023-03-04T02:03:29;997.6;;;1.5;74.8
54439;BME280;40347;53.848;27.498;2023-03-04T02:08:33;997.6;;;1.5;75
54439;BME280;40347;53.848;27.498;2023-03-04T02:13:27;997.5;;;1.5;74.9
54439;BME280;40347;53.848;27.498;2023-03-04T02:18:22;997.4;;;1.6;74.7
54439;BME280;40347;53.848;27.498;2023-03-04T02:23:34;997.4;;;1.5;74.6
54439;BME280;40347;53.848;27.498;2023-03-04T02:28:29;997.2;;;1.6;74
54439;BME280;40347;53.848;27.498;2023-03-04T02:33:21;997.1;;;1.7;73.7
54439;BME280;40347;53.848;27.498;2023-03-04T02:38:39;997.1;;;1.8;73
54439;BME280;40347;53.848;27.498;2023-03-04T02:43:21;997;;;1.9;72.5
54439;BME280;40347;53.848;27.498;2023-03-04T02:48:29;996.9;;;1.9;72
54439;BME280;40347;53.848;27.498;2023-03-04T02:53:29;996.7;;;1.9;71.5
54439;BME280;40347;53.848;27.498;2023-03-04T02:58:29;996.6;;;1.9;71.3
54439;BME280;40347;53.848;27.498;2023-03-04T03:03:29;996.6;;;1.9;70.9
54439;BME280;40347;53.848;27.498;2023-03-04T03:08:21;996.6;;;1.9;70.8
54439;BME280;40347;53.848;27.498;2023-03-04T03:13:21;996.5;;;1.9;70.7
54439;BME280;40347;53.848;27.498;2023-03-04T03:18:21;996.3;;;1.8;70.5
54439;BME280;40347;53.848;27.498;2023-03-04T03:23:33;996.2;;;1.8;70.7
54439;BME280;40347;53.848;27.498;2023-03-04T03:28:21;996.1;;;1.8;70.7
54439;BME280;40347;53.848;27.498;2023-03-04T03:33:41;996;;;1.7;70.5
54439;BME280;40347;53.848;27.498;2023-03-04T03:38:21;995.9;;;1.7;70.5
54439;BME280;40347;53.848;27.498;2023-03-04T03:43:21;995.8;;;1.8;70.4
54439;BME280;40347;53.848;27.498;2023-03-04T03:48:21;995.6;;;1.8;70
54439;BME280;40347;53.848;27.498;2023-03-04T03:53:41;995.5;;;1.9;69.9
54439;BME280;40347;53.848;27.498;2023-03-04T03:58:21;995.4;;;1.9;69.6
54439;BME280;40347;53.848;27.498;2023-03-04T04:03:41;995.3;;;1.9;69.5
54439;BME280;40347;53.848;27.498;2023-03-04T04:08:21;995.2;;;1.9;69.7
54439;BME280;40347;53.848;27.498;2023-03-04T04:13:29;995.1;;;1.9;69.6
54439;BME280;40347;53.848;27.498;2023-03-04T04:18:33;995.1;;;1.9;69.3
54439;BME280;40347;53.848;27.498;2023-03-04T04:23:21;995;;;2;69.1
54439;BME280;40347;53.848;27.498;2023-03-04T04:28:29;995;;;2;68.9
54439;BME280;40347;53.848;27.498;2023-03-04T04:33:29;994.8;;;2.1;68.7
54439;BME280;40347;53.848;27.498;2023-03-04T04:38:33;994.8;;;2.1;69.1
54439;BME280;40347;53.848;27.498;2023-03-04T04:43:41;994.7;;;2;69.4
54439;BME280;40347;53.848;27.498;2023-03-04T04:48:21;994.5;;;1.9;69.6
54439;BME280;40347;53.848;27.498;2023-03-04T04:53:35;994.5;;;1.9;69.6
54439;BME280;40347;53.848;27.498;2023-03-04T04:58:21;994.3;;;1.9;69.5
54439;BME280;40347;53.848;27.498;2023-03-04T05:03:29;994.2;;;2;69.2
54439;BME280;40347;53.848;27.498;2023-03-04T05:08:27;994.2;;;1.9;69.1
54439;BME280;40347;53.848;27.498;2023-03-04T05:13:41;994.1;;;1.8;69.2
54439;BME280;40347;53.848;27.498;2023-03-04T05:18:29;993.9;;;1.8;69.5
54439;BME280;40347;53.848;27.498;2023-03-04T05:23:34;994.1;;;1.8;69.6
54439;BME280;40347;53.848;27.498;2023-03-04T05:28:33;994.1;;;1.7;69.9
54439;BME280;40347;53.848;27.498;2023-03-04T05:33:21;994.1;;;1.7;69.9
54439;BME280;40347;53.848;27.498;2023-03-04T05:38:33;993.9;;;1.7;70
54439;BME280;40347;53.848;27.498;2023-03-04T05:43:21;993.7;;;1.8;69.8
54439;BME280;40347;53.848;27.498;2023-03-04T05:48:29;993.8;;;1.9;69.6
54439;BME280;40347;53.848;27.498;2023-03-04T05:53:31;993.8;;;2;69.3
54439;BME280;40347;53.848;27.498;2023-03-04T05:58:29;993.7;;;2.1;69.1
54439;BME280;40347;53.848;27.498;2023-03-04T06:03:41;993.6;;;2.2;68.6
54439;BME280;40347;53.848;27.498;2023-03-04T06:08:55;993.7;;;2.3;68.4
54439;BME280;40347;53.848;27.498;2023-03-04T06:13:51;993.7;;;2.4;68.1
54439;BME280;40347;53.848;27.498;2023-03-04T06:18:33;993.7;;;2.5;67.9
54439;BME280;40347;53.848;27.498;2023-03-04T06:23:21;993.7;;;2.6;67.6
54439;BME280;40347;53.848;27.498;2023-03-04T06:28:21;993.6;;;2.7;67.6
54439;BME280;40347;53.848;27.498;2023-03-04T06:33:29;993.6;;;2.7;67.4
54439;BME280;40347;53.848;27.498;2023-03-04T06:38:43;993.6;;;2.8;67.5
54439;BME280;40347;53.848;27.498;2023-03-04T06:43:31;993.4;;;2.8;67.2
54439;BME280;40347;53.848;27.498;2023-03-04T06:48:21;993.4;;;2.9;67.3
54439;BME280;40347;53.848;27.498;2023-03-04T06:53:33;993.4;;;2.9;67.2
54439;BME280;40347;53.848;27.498;2023-03-04T06:58:21;993.3;;;3.1;67
54439;BME280;40347;53.848;27.498;2023-03-04T07:03:43;993.3;;;3.3;66.7
54439;BME280;40347;53.848;27.498;2023-03-04T07:08:21;993.3;;;3.5;66.3
54439;BME280;40347;53.848;27.498;2023-03-04T07:13:21;993.2;;;3.8;66
54439;BME280;40347;53.848;27.498;2023-03-04T07:18:21;993.1;;;3.9;65.3
54439;BME280;40347;53.848;27.498;2023-03-04T07:23:47;993.2;;;3.8;65.4
54439;BME280;40347;53.848;27.498;2023-03-04T07:28:43;993.2;;;3.4;66.2
54439;BME280;40347;53.848;27.498;2023-03-04T07:33:21;993.2;;;2.9;67.7
54439;BME280;40347;53.848;27.498;2023-03-04T07:38:21;993.1;;;2.6;69.4
54439;BME280;40347;53.848;27.498;2023-03-04T07:43:21;993.2;;;2.3;69.8
54439;BME280;40347;53.848;27.498;2023-03-04T07:48:29;993.1;;;2;71
54439;BME280;40347;53.848;27.498;2023-03-04T07:53:21;993.1;;;1.8;72.7
54439;BME280;40347;53.848;27.498;2023-03-04T07:58:33;993.1;;;1.7;73.5
54439;BME280;40347;53.848;27.498;2023-03-04T08:03:21;993.2;;;1.7;74.3
54439;BME280;40347;53.848;27.498;2023-03-04T08:08:21;993.1;;;1.9;74.8
54439;BME280;40347;53.848;27.498;2023-03-04T08:13:21;993;;;2.1;74.4
54439;BME280;40347;53.848;27.498;2023-03-04T08:18:21;993.3;;;1.9;74
54439;BME280;40347;53.848;27.498;2023-03-04T08:23:33;993.8;;;1.3;81.2
54439;BME280;40347;53.848;27.498;2023-03-04T08:28:21;993.7;;;0.8;82.4
54439;BME280;40347;53.848;27.498;2023-03-04T08:33:41;993.8;;;0.7;81.3
54439;BME280;40347;53.848;27.498;2023-03-04T08:38:41;993.7;;;0.6;82.2
54439;BME280;40347;53.848;27.498;2023-03-04T08:43:21;993.7;;;1;79.6
54439;BME280;40347;53.848;27.498;2023-03-04T08:48:43;993.6;;;1.2;76.7
54439;BME280;40347;53.848;27.498;2023-03-04T08:53:21;993.6;;;1.1;73.7
54439;BME280;40347;53.848;27.498;2023-03-04T08:58:21;993.7;;;1.2;73.2
54439;BME280;40347;53.848;27.498;2023-03-04T09:03:21;993.6;;;1.2;72.4
54439;BME280;40347;53.848;27.498;2023-03-04T09:08:33;993.6;;;1.1;71.5
54439;BME280;40347;53.848;27.498;2023-03-04T09:13:21;993.6;;;0.9;69.4
54439;BME280;40347;53.848;27.498;2023-03-04T09:18:22;993.6;;;1;69.1
54439;BME280;40347;53.848;27.498;2023-03-04T09:23:33;993.5;;;1.3;68.7
54439;BME280;40347;53.848;27.498;2023-03-04T09:28:29;993.5;;;1.7;68.6
54439;BME280;40347;53.848;27.498;2023-03-04T09:33:21;993.5;;;1.9;67.5
54439;BME280;40347;53.848;27.498;2023-03-04T09:38:33;993.5;;;2.1;67.5
54439;BME280;40347;53.848;27.498;2023-03-04T09:43:43;993.5;;;2.3;67.4
54439;BME280;40347;53.848;27.498;2023-03-04T09:48:35;993.4;;;2.1;67
54439;BME280;40347;53.848;27.498;2023-03-04T09:53:21;993.4;;;1.9;67.5
54439;BME280;40347;53.848;27.498;2023-03-04T09:58:25;993.2;;;2;68.1
54439;BME280;40347;53.848;27.498;2023-03-04T10:03:22;993.2;;;2.2;67.9
54439;BME280;40347;53.848;27.498;2023-03-04T10:08:30;993.1;;;2.1;67.8
54439;BME280;40347;53.848;27.498;2023-03-04T10:13:22;993.1;;;2.2;67.9
54439;BME280;40347;53.848;27.498;2023-03-04T10:18:21;993;;;2.2;67.4
54439;BME280;40347;53.848;27.498;2023-03-04T10:23:30;993;;;2.6;66.4
54439;BME280;40347;53.848;27.498;2023-03-04T10:28:23;993;;;3.3;63.9
54439;BME280;40347;53.848;27.498;2023-03-04T10:33:22;992.9;;;3.8;60.8
54439;BME280;40347;53.848;27.498;2023-03-04T10:38:34;992.9;;;4;59.2
54439;BME280;40347;53.848;27.498;2023-03-04T10:43:21;992.8;;;4.5;60.2
54439;BME280;40347;53.848;27.498;2023-03-04T10:48:22;992.7;;;4.6;58.8
54439;BME280;40347;53.848;27.498;2023-03-04T10:54:07;992.6;;;4.1;59.1
54439;BME280;40347;53.848;27.498;2023-03-04T10:58:21;992.6;;;3.8;60.3
54439;BME280;40347;53.848;27.498;2023-03-04T11:03:23;992.5;;;3.7;60.4
54439;BME280;40347;53.848;27.498;2023-03-04T11:08:43;992.7;;;3.8;60.1
54439;BME280;40347;53.848;27.498;2023-03-04T11:13:22;992.8;;;3.4;61.3
54439;BME280;40347;53.848;27.498;2023-03-04T11:18:22;992.8;;;3.6;63.9
54439;BME280;40347;53.848;27.498;2023-03-04T11:23:22;992.7;;;3.2;62.5
54439;BME280;40347;53.848;27.498;2023-03-04T11:28:22;992.7;;;3;62.8
54439;BME280;40347;53.848;27.498;2023-03-04T11:33:23;992.7;;;2.8;62.1
54439;BME280;40347;53.848;27.498;2023-03-04T11:38:35;992.7;;;3;62.1
54439;BME280;40347;53.848;27.498;2023-03-04T11:43:23;992.6;;;3.4;60
54439;BME280;40347;53.848;27.498;2023-03-04T11:48:35;992.5;;;3.5;57.8
54439;BME280;40347;53.848;27.498;2023-03-04T11:53:44;992.3;;;3.5;55.2
54439;BME280;40347;53.848;27.498;2023-03-04T11:58:34;992.4;;;3.6;55.1
54439;BME280;40347;53.848;27.498;2023-03-04T12:03:39;992.4;;;3.9;55
54439;BME280;40347;53.848;27.498;2023-03-04T12:08:38;992.5;;;3.9;55.1
54439;BME280;40347;53.848;27.498;2023-03-04T12:13:25;992.4;;;4.1;56.2
54439;BME280;40347;53.848;27.498;2023-03-04T12:18:50;992.4;;;4.1;52.8
54439;BME280;40347;53.848;27.498;2023-03-04T12:23:25;992.6;;;4;53.3
54439;BME280;40347;53.848;27.498;2023-03-04T12:28:37;992.6;;;3.9;55
54439;BME280;40347;53.848;27.498;2023-03-04T12:33:49;992.6;;;3.6;54.4
54439;BME280;40347;53.848;27.498;2023-03-04T12:38:25;992.5;;;3.3;55.4
54439;BME280;40347;53.848;27.498;2023-03-04T12:43:42;992.4;;;3.1;56.6
54439;BME280;40347;53.848;27.498;2023-03-04T12:48:25;992.5;;;3.2;55.8
54439;BME280;40347;53.848;27.498;2023-03-04T12:53:35;992.6;;;3.1;56.4
54439;BME280;40347;53.848;27.498;2023-03-04T12:58:22;992.7;;;2.8;58
54439;BME280;40347;53.848;27.498;2023-03-04T13:03:22;992.8;;;2.3;61
54439;BME280;40347;53.848;27.498;2023-03-04T13:08:36;992.8;;;1.6;72.4
54439;BME280;40347;53.848;27.498;2023-03-04T13:13:59;993.1;;;0.6;85.4
54439;BME280;40347;53.848;27.498;2023-03-04T13:18:34;993.2;;;0.3;81.7
54439;BME280;40347;53.848;27.498;2023-03-04T13:23:23;992.9;;;0.4;80.4
54439;BME280;40347;53.848;27.498;2023-03-04T13:28:29;992.9;;;0.1;78.5
54439;BME280;40347;53.848;27.498;2023-03-04T13:33:54;992.8;;;0.1;77.3
54439;BME280;40347;53.848;27.498;2023-03-04T13:38:31;992.8;;;0;75.3
54439;BME280;40347;53.848;27.498;2023-03-04T13:43:36;992.8;;;0.1;74
54439;BME280;40347;53.848;27.498;2023-03-04T13:48:22;992.8;;;-0.2;72.1
54439;BME280;40347;53.848;27.498;2023-03-04T13:53:28;992.8;;;-0.2;71.9
54439;BME280;40347;53.848;27.498;2023-03-04T13:58:31;992.8;;;0;71.9
54439;BME280;40347;53.848;27.498;2023-03-04T14:03:22;992.8;;;0.1;71.1
54439;BME280;40347;53.848;27.498;2023-03-04T14:08:33;992.8;;;0.4;70
54439;BME280;40347;53.848;27.498;2023-03-04T14:13:33;992.9;;;0.6;68.5
54439;BME280;40347;53.848;27.498;2023-03-04T14:18:21;993.1;;;0.6;69.3
54439;BME280;40347;53.848;27.498;2023-03-04T14:23:22;993.1;;;0.3;72.9
54439;BME280;40347;53.848;27.498;2023-03-04T14:28:29;993;;;-0.2;73
54439;BME280;40347;53.848;27.498;2023-03-04T14:33:22;992.9;;;-0.3;73.1
54439;BME280;40347;53.848;27.498;2023-03-04T14:38:33;992.9;;;-0.4;73
54439;BME280;40347;53.848;27.498;2023-03-04T14:43:21;992.8;;;-0.4;72.4
54439;BME280;40347;53.848;27.498;2023-03-04T14:48:22;992.8;;;-0.4;72.3
54439;BME280;40347;53.848;27.498;2023-03-04T14:53:30;992.8;;;-0.2;71.7
54439;BME280;40347;53.848;27.498;2023-03-04T14:58:50;992.7;;;-0.2;71
54439;BME280;40347;53.848;27.498;2023-03-04T15:03:50;992.7;;;-0.1;70.4
54439;BME280;40347;53.848;27.498;2023-03-04T15:08:30;992.8;;;0;69.6
54439;BME280;40347;53.848;27.498;2023-03-04T15:13:35;993;;;0.2;68
54439;BME280;40347;53.848;27.498;2023-03-04T15:18:29;993.2;;;-0.6;76.9
54439;BME280;40347;53.848;27.498;2023-03-04T15:23:33;993.1;;;-1;85.3
54439;BME280;40347;53.848;27.498;2023-03-04T15:28:34;993;;;-1.1;86.2
54439;BME280;40347;53.848;27.498;2023-03-04T15:33:29;992.8;;;-1.2;86.2
54439;BME280;40347;53.848;27.498;2023-03-04T15:38:54;992.8;;;-1.3;86.3
54439;BME280;40347;53.848;27.498;2023-03-04T15:43:29;992.8;;;-1.5;84.9
54439;BME280;40347;53.848;27.498;2023-03-04T15:48:33;992.9;;;-1.5;84.5
54439;BME280;40347;53.848;27.498;2023-03-04T15:53:24;993;;;-1.5;83.2
54439;BME280;40347;53.848;27.498;2023-03-04T15:58:21;993.1;;;-1.6;82.3
54439;BME280;40347;53.848;27.498;2023-03-04T16:03:45;993.1;;;-1.7;80.2
54439;BME280;40347;53.848;27.498;2023-03-04T16:08:21;992.9;;;-1.7;78.9
54439;BME280;40347;53.848;27.498;2023-03-04T16:13:22;992.7;;;-1.6;77.2
54439;BME280;40347;53.848;27.498;2023-03-04T16:18:33;992.8;;;-1.7;75.7
54439;BME280;40347;53.848;27.498;2023-03-04T16:23:53;992.8;;;-1.7;75
54439;BME280;40347;53.848;27.498;2023-03-04T16:28:33;992.8;;;-1.8;73.7
54439;BME280;40347;53.848;27.498;2023-03-04T16:33:21;992.8;;;-1.9;72.5
54439;BME280;40347;53.848;27.498;2023-03-04T16:38:30;992.8;;;-2;70.3
54439;BME280;40347;53.848;27.498;2023-03-04T16:43:21;992.8;;;-2.2;68.2
54439;BME280;40347;53.848;27.498;2023-03-04T16:48:21;992.8;;;-2.3;65.5
54439;BME280;40347;53.848;27.498;2023-03-04T16:53:34;992.9;;;-2.3;65
54439;BME280;40347;53.848;27.498;2023-03-04T16:58:29;992.9;;;-2.4;64.1
54439;BME280;40347;53.848;27.498;2023-03-04T17:03:41;992.9;;;-2.5;63.8
54439;BME280;40347;53.848;27.498;2023-03-04T17:08:45;992.9;;;-2.4;64.1
54439;BME280;40347;53.848;27.498;2023-03-04T17:13:29;992.8;;;-2.3;63.6
54439;BME280;40347;53.848;27.498;2023-03-04T17:18:45;992.9;;;-2.2;63.8
54439;BME280;40347;53.848;27.498;2023-03-04T17:23:21;992.9;;;-2.2;63.6
54439;BME280;40347;53.848;27.498;2023-03-04T17:28:21;992.9;;;-2.2;64.1
54439;BME280;40347;53.848;27.498;2023-03-04T17:33:21;992.9;;;-2.2;64.1
54439;BME280;40347;53.848;27.498;2023-03-04T17:38:29;992.8;;;-2.3;63.8
54439;BME280;40347;53.848;27.498;2023-03-04T17:43:21;992.8;;;-2.4;64.4
54439;BME280;40347;53.848;27.498;2023-03-04T17:48:21;992.8;;;-2.3;64.4
54439;BME280;40347;53.848;27.498;2023-03-04T17:53:21;992.8;;;-2.2;64.5
54439;BME280;40347;53.848;27.498;2023-03-04T17:58:46;992.8;;;-2.1;64.1
54439;BME280;40347;53.848;27.498;2023-03-04T18:03:29;992.7;;;-2.1;64.4
54439;BME280;40347;53.848;27.498;2023-03-04T18:08:33;992.7;;;-2;65.3
54439;BME280;40347;53.848;27.498;2023-03-04T18:13:55;992.6;;;-2;67.6
54439;BME280;40347;53.848;27.498;2023-03-04T18:18:41;992.5;;;-1.9;68.1
54439;BME280;40347;53.848;27.498;2023-03-04T18:23:33;992.5;;;-1.9;67.8
54439;BME280;40347;53.848;27.498;2023-03-04T18:28:30;992.5;;;-1.8;67.1
54439;BME280;40347;53.848;27.498;2023-03-04T18:33:48;992.5;;;-1.8;66.7
54439;BME280;40347;53.848;27.498;2023-03-04T18:38:41;992.5;;;-1.8;66.8
54439;BME280;40347;53.848;27.498;2023-03-04T18:43:21;992.4;;;-1.9;67.4
54439;BME280;40347;53.848;27.498;2023-03-04T18:48:34;992.6;;;-2;67.7
54439;BME280;40347;53.848;27.498;2023-03-04T18:54:05;992.6;;;-1.9;68.8
54439;BME280;40347;53.848;27.498;2023-03-04T18:58:46;992.6;;;-2;70.9
54439;BME280;40347;53.848;27.498;2023-03-04T19:03:41;992.5;;;-2;70.2
54439;BME280;40347;53.848;27.498;2023-03-04T19:08:21;992.5;;;-2;69.4
54439;BME280;40347;53.848;27.498;2023-03-04T19:13:33;992.5;;;-2;69.2
54439;BME280;40347;53.848;27.498;2023-03-04T19:18:37;992.5;;;-2;69.1
54439;BME280;40347;53.848;27.498;2023-03-04T19:23:33;992.5;;;-2;69
54439;BME280;40347;53.848;27.498;2023-03-04T19:28:29;992.6;;;-1.9;68.8
54439;BME280;40347;53.848;27.498;2023-03-04T19:33:33;992.4;;;-2;68.9
54439;BME280;40347;53.848;27.498;2023-03-04T19:38:45;992.5;;;-2.1;71
54439;BME280;40347;53.848;27.498;2023-03-04T19:43:29;992.6;;;-2.1;72.4
54439;BME280;40347;53.848;27.498;2023-03-04T19:48:22;992.6;;;-2.1;71
54439;BME280;40347;53.848;27.498;2023-03-04T19:53:21;992.6;;;-2.1;71.8
54439;BME280;40347;53.848;27.498;2023-03-04T19:58:21;992.7;;;-2.1;72.4
54439;BME280;40347;53.848;27.498;2023-03-04T20:03:33;992.8;;;-2.1;72.6
54439;BME280;40347;53.848;27.498;2023-03-04T20:08:21;992.8;;;-2;71.9
54439;BME280;40347;53.848;27.498;2023-03-04T20:13:45;992.8;;;-2;72.7
54439;BME280;40347;53.848;27.498;2023-03-04T20:18:41;992.6;;;-2.1;75
54439;BME280;40347;53.848;27.498;2023-03-04T20:23:43;992.6;;;-2.1;77
54439;BME280;40347;53.848;27.498;2023-03-04T20:28:33;992.6;;;-2.1;79.7
54439;BME280;40347;53.848;27.498;2023-03-04T20:33:21;992.5;;;-1.9;78.5
54439;BME280;40347;53.848;27.498;2023-03-04T20:38:33;992.5;;;-1.9;76.3
54439;BME280;40347;53.848;27.498;2023-03-04T20:43:21;992.5;;;-1.8;75.1
54439;BME280;40347;53.848;27.498;2023-03-04T20:48:21;992.6;;;-1.7;75.7
54439;BME280;40347;53.848;27.498;2023-03-04T20:53:33;992.6;;;-1.7;76.3
54439;BME280;40347;53.848;27.498;2023-03-04T20:58:21;992.7;;;-1.7;76.6
54439;BME280;40347;53.848;27.498;2023-03-04T21:03:33;992.7;;;-1.6;76.5
54439;BME280;40347;53.848;27.498;2023-03-04T21:08:21;992.7;;;-1.6;76.9
54439;BME280;40347;53.848;27.498;2023-03-04T21:13:41;992.7;;;-1.6;78.1
54439;BME280;40347;53.848;27.498;2023-03-04T21:18:21;992.7;;;-1.6;80.7
54439;BME280;40347;53.848;27.498;2023-03-04T21:23:29;992.9;;;-1.5;83.3
54439;BME280;40347;53.848;27.498;2023-03-04T21:28:33;992.8;;;-1.5;83.1
54439;BME280;40347;53.848;27.498;2023-03-04T21:33:21;992.9;;;-1.4;83
54439;BME280;40347;53.848;27.498;2023-03-04T21:38:21;992.9;;;-1.4;81.1
54439;BME280;40347;53.848;27.498;2023-03-04T21:43:21;992.9;;;-1.4;80.3
54439;BME280;40347;53.848;27.498;2023-03-04T21:48:40;992.9;;;-1.3;79.7
54439;BME280;40347;53.848;27.498;2023-03-04T21:53:45;992.9;;;-1.5;82
54439;BME280;40347;53.848;27.498;2023-03-04T21:58:41;992.9;;;-1.7;87.8
54439;BME280;40347;53.848;27.498;2023-03-04T22:03:33;993.2;;;-1.6;90.1
54439;BME280;40347;53.848;27.498;2023-03-04T22:08:21;993.1;;;-1.5;90.9
54439;BME280;40347;53.848;27.498;2023-03-04T22:13:31;993.2;;;-1.4;92.5
54439;BME280;40347;53.848;27.498;2023-03-04T22:18:21;993.3;;;-1.5;92.6
54439;BME280;40347;53.848;27.498;2023-03-04T22:23:21;993.2;;;-1.4;93.6
54439;BME280;40347;53.848;27.498;2023-03-04T22:28:21;993.3;;;-1.4;92.4
54439;BME280;40347;53.848;27.498;2023-03-04T22:33:39;993.3;;;-1.2;92.6
54439;BME280;40347;53.848;27.498;2023-03-04T22:38:31;993.4;;;-1.2;92.1
54439;BME280;40347;53.848;27.498;2023-03-04T22:43:46;993.4;;;-1.1;91
54439;BME280;40347;53.848;27.498;2023-03-04T22:48:21;993.5;;;-1;89.8
54439;BME280;40347;53.848;27.498;2023-03-04T22:53:21;993.4;;;-1;87.7
54439;BME280;40347;53.848;27.498;2023-03-04T22:58:21;993.7;;;-1.1;85.3
54439;BME280;40347;53.848;27.498;2023-03-04T23:03:44;993.7;;;-1;83.5
54439;BME280;40347;53.848;27.498;2023-03-04T23:08:46;993.9;;;-0.9;82
54439;BME280;40347;53.848;27.498;2023-03-04T23:13:29;994;;;-0.9;81.3
54439;BME280;40347;53.848;27.498;2023-03-04T23:18:21;994;;;-0.8;80.6
54439;BME280;40347;53.848;27.498;2023-03-04T23:23:29;994.1;;;-0.8;80.2
54439;BME280;40347;53.848;27.498;2023-03-04T23:28:37;994.1;;;-0.7;79.7
54439;BME280;40347;53.848;27.498;2023-03-04T23:33:21;994.2;;;-0.6;79.1
54439;BME280;40347;53.848;27.498;2023-03-04T23:38:29;994.2;;;-0.6;78.9
54439;BME280;40347;53.848;27.498;2023-03-04T23:43:41;994.3;;;-0.5;79.1
54439;BME280;40347;53.848;27.498;2023-03-04T23:48:33;994.3;;;-0.5;78.9
54439;BME280;40347;53.848;27.498;2023-03-04T23:53:37;994.3;;;-0.6;78.9
54439;BME280;40347;53.848;27.498;2023-03-04T23:58:33;994.4;;;-0.6;78.9
